sensor_id;sensor_type;location;lat;lon;timestamp;pressure;altitude;pressure_sealevel;temperature;humidity
7407;BME280;3745;56.964;24.128;2023-04-21T00:00:57;102304.59;;;8.38;100.00
7407;BME280;3745;56.964;24.128;2023-04-21T00:03:26;102287.97;;;8.25;100.00
7407;BME280;3745;56.964;24.128;2023-04-21T00:05:55;102306.19;;;8.36;100.00
7407;BME280;3745;56.964;24.128;2023-04-21T00:08:23;102307.75;;;8.34;100.00
7407;BME280;3745;56.964;24.128;2023-04-21T00:10:50;102249.75;;;7.98;100.00
7407;BME280;3745;56.964;24.128;2023-04-21T00:13:16;102259.69;;;7.95;100.00
7407;BME280;3745;56.964;24.128;2023-04-21T00:15:41;102291.59;;;8.12;100.00
7407;BME280;3745;56.964;24.128;2023-04-21T00:18:07;102294.63;;;8.05;100.00
7407;BME280;3745;56.964;24.128;2023-04-21T00:20:34;102307.28;;;8.25;100.00
7407;BME280;3745;56.964;24.128;2023-04-21T00:23:00;102311.25;;;8.19;100.00
7407;BME280;3745;56.964;24.128;2023-04-21T00:25:26;102301.97;;;8.18;100.00
7407;BME280;3745;56.964;24.128;2023-04-21T00:27:52;102212.44;;;7.56;100.00
7407;BME280;3745;56.964;24.128;2023-04-21T00:30:17;102299.69;;;8.05;100.00
7407;BME280;3745;56.964;24.128;2023-04-21T00:32:43;102216.38;;;7.51;100.00
7407;BME280;3745;56.964;24.128;2023-04-21T00:35:09;102305.34;;;8.01;100.00
7407;BME280;3745;56.964;24.128;2023-04-21T00:37:35;102297.66;;;7.98;100.00
7407;BME280;3745;56.964;24.128;2023-04-21T00:40:01;102312.63;;;7.95;100.00
7407;BME280;3745;56.964;24.128;2023-04-21T00:42:28;102302.09;;;7.86;100.00
7407;BME280;3745;56.964;24.128;2023-04-21T00:44:53;102244.72;;;7.47;100.00
7407;BME280;3745;56.964;24.128;2023-04-21T00:47:19;102203.72;;;7.16;100.00
7407;BME280;3745;56.964;24.128;2023-04-21T00:49:46;102235.91;;;7.39;100.00
7407;BME280;3745;56.964;24.128;2023-04-21T00:52:13;102289.38;;;7.67;100.00
7407;BME280;3745;56.964;24.128;2023-04-21T00:54:40;102310.00;;;7.76;100.00
7407;BME280;3745;56.964;24.128;2023-04-21T00:57:05;102254.50;;;7.41;100.00
7407;BME280;3745;56.964;24.128;2023-04-21T00:59:34;102302.31;;;7.57;100.00
7407;BME280;3745;56.964;24.128;2023-04-21T01:02:00;102300.59;;;7.56;100.00
7407;BME280;3745;56.964;24.128;2023-04-21T01:04:27;102255.31;;;7.24;100.00
7407;BME280;3745;56.964;24.128;2023-04-21T01:06:52;102296.50;;;7.42;100.00
7407;BME280;3745;56.964;24.128;2023-04-21T01:09:19;102296.66;;;7.45;100.00
7407;BME280;3745;56.964;24.128;2023-04-21T01:12:05;102285.81;;;7.30;100.00
7407;BME280;3745;56.964;24.128;2023-04-21T01:14:31;102278.16;;;7.11;100.00
7407;BME280;3745;56.964;24.128;2023-04-21T01:16:57;102266.34;;;6.93;100.00
7407;BME280;3745;56.964;24.128;2023-04-21T01:19:23;102275.63;;;6.94;100.00
7407;BME280;3745;56.964;24.128;2023-04-21T01:21:50;102306.63;;;7.09;100.00
7407;BME280;3745;56.964;24.128;2023-04-21T01:24:18;102255.50;;;6.94;100.00
7407;BME280;3745;56.964;24.128;2023-04-21T01:26:44;102288.44;;;7.15;100.00
7407;BME280;3745;56.964;24.128;2023-04-21T01:29:14;102303.81;;;7.20;100.00
7407;BME280;3745;56.964;24.128;2023-04-21T01:31:41;102297.03;;;7.19;100.00
7407;BME280;3745;56.964;24.128;2023-04-21T01:34:07;102303.63;;;7.17;100.00
7407;BME280;3745;56.964;24.128;2023-04-21T01:36:33;102281.91;;;7.02;100.00
7407;BME280;3745;56.964;24.128;2023-04-21T01:39:00;102294.97;;;7.12;100.00
7407;BME280;3745;56.964;24.128;2023-04-21T01:41:25;102293.25;;;7.11;100.00
7407;BME280;3745;56.964;24.128;2023-04-21T01:43:51;102284.28;;;6.99;100.00
7407;BME280;3745;56.964;24.128;2023-04-21T01:46:19;102275.16;;;6.85;100.00
7407;BME280;3745;56.964;24.128;2023-04-21T01:48:45;102299.38;;;6.99;100.00
7407;BME280;3745;56.964;24.128;2023-04-21T01:51:11;102295.28;;;6.85;100.00
7407;BME280;3745;56.964;24.128;2023-04-21T01:53:36;102280.81;;;6.81;100.00
7407;BME280;3745;56.964;24.128;2023-04-21T01:56:02;102264.31;;;6.70;100.00
7407;BME280;3745;56.964;24.128;2023-04-21T01:58:28;102282.22;;;6.76;100.00
7407;BME280;3745;56.964;24.128;2023-04-21T02:00:53;102292.34;;;6.78;100.00
7407;BME280;3745;56.964;24.128;2023-04-21T02:03:19;102239.91;;;6.53;100.00
7407;BME280;3745;56.964;24.128;2023-04-21T02:05:45;102290.25;;;6.85;100.00
7407;BME280;3745;56.964;24.128;2023-04-21T02:08:10;102294.97;;;6.79;100.00
7407;BME280;3745;56.964;24.128;2023-04-21T02:10:36;102301.38;;;6.74;100.00
7407;BME280;3745;56.964;24.128;2023-04-21T02:13:02;102270.56;;;6.62;100.00
7407;BME280;3745;56.964;24.128;2023-04-21T02:15:27;102262.06;;;6.60;100.00
7407;BME280;3745;56.964;24.128;2023-04-21T02:17:53;102286.13;;;6.71;100.00
7407;BME280;3745;56.964;24.128;2023-04-21T02:20:19;102234.53;;;6.47;100.00
7407;BME280;3745;56.964;24.128;2023-04-21T02:22:44;102270.72;;;6.65;100.00
7407;BME280;3745;56.964;24.128;2023-04-21T02:25:10;102271.44;;;6.63;100.00
7407;BME280;3745;56.964;24.128;2023-04-21T02:27:35;102281.09;;;6.71;100.00
7407;BME280;3745;56.964;24.128;2023-04-21T02:30:01;102288.97;;;6.61;100.00
7407;BME280;3745;56.964;24.128;2023-04-21T02:32:27;102256.56;;;6.51;100.00
7407;BME280;3745;56.964;24.128;2023-04-21T02:34:53;102290.34;;;6.56;100.00
7407;BME280;3745;56.964;24.128;2023-04-21T02:37:19;102278.25;;;6.49;100.00
7407;BME280;3745;56.964;24.128;2023-04-21T02:39:45;102286.56;;;6.48;100.00
7407;BME280;3745;56.964;24.128;2023-04-21T02:42:10;102278.09;;;6.46;100.00
7407;BME280;3745;56.964;24.128;2023-04-21T02:44:37;102266.28;;;6.45;100.00
7407;BME280;3745;56.964;24.128;2023-04-21T02:47:02;102280.34;;;6.41;100.00
7407;BME280;3745;56.964;24.128;2023-04-21T02:49:28;102269.41;;;6.41;100.00
7407;BME280;3745;56.964;24.128;2023-04-21T02:51:54;102284.66;;;6.44;100.00
7407;BME280;3745;56.964;24.128;2023-04-21T02:54:20;102274.63;;;6.44;100.00
7407;BME280;3745;56.964;24.128;2023-04-21T02:56:45;102257.66;;;6.25;100.00
7407;BME280;3745;56.964;24.128;2023-04-21T02:59:11;102267.00;;;6.28;100.00
7407;BME280;3745;56.964;24.128;2023-04-21T03:01:40;102278.97;;;6.32;100.00
7407;BME280;3745;56.964;24.128;2023-04-21T03:04:06;102233.81;;;6.03;100.00
7407;BME280;3745;56.964;24.128;2023-04-21T03:06:32;102248.44;;;6.10;100.00
7407;BME280;3745;56.964;24.128;2023-04-21T03:08:58;102291.13;;;6.39;100.00
7407;BME280;3745;56.964;24.128;2023-04-21T03:11:23;102274.13;;;6.35;100.00
7407;BME280;3745;56.964;24.128;2023-04-21T03:13:49;102268.44;;;6.23;100.00
7407;BME280;3745;56.964;24.128;2023-04-21T03:16:14;102297.34;;;6.31;100.00
7407;BME280;3745;56.964;24.128;2023-04-21T03:18:40;102297.53;;;6.34;100.00
7407;BME280;3745;56.964;24.128;2023-04-21T03:21:05;102291.97;;;6.39;100.00
7407;BME280;3745;56.964;24.128;2023-04-21T03:23:31;102251.59;;;6.22;100.00
7407;BME280;3745;56.964;24.128;2023-04-21T03:25:56;102259.81;;;6.34;100.00
7407;BME280;3745;56.964;24.128;2023-04-21T03:28:22;102279.97;;;6.50;100.00
7407;BME280;3745;56.964;24.128;2023-04-21T03:30:48;102281.88;;;6.54;100.00
7407;BME280;3745;56.964;24.128;2023-04-21T03:33:13;102278.94;;;6.46;100.00
7407;BME280;3745;56.964;24.128;2023-04-21T03:35:39;102278.25;;;6.49;100.00
7407;BME280;3745;56.964;24.128;2023-04-21T03:38:04;102283.28;;;6.49;100.00
7407;BME280;3745;56.964;24.128;2023-04-21T03:40:30;102266.19;;;6.43;100.00
7407;BME280;3745;56.964;24.128;2023-04-21T03:42:55;102223.34;;;6.26;100.00
7407;BME280;3745;56.964;24.128;2023-04-21T03:45:21;102270.41;;;6.59;100.00
7407;BME280;3745;56.964;24.128;2023-04-21T03:47:51;102234.06;;;6.38;100.00
7407;BME280;3745;56.964;24.128;2023-04-21T03:50:17;102266.22;;;6.60;100.00
7407;BME280;3745;56.964;24.128;2023-04-21T03:52:42;102249.78;;;6.50;100.00
7407;BME280;3745;56.964;24.128;2023-04-21T03:55:08;102263.34;;;6.52;100.00
7407;BME280;3745;56.964;24.128;2023-04-21T03:57:38;102269.78;;;6.63;100.00
7407;BME280;3745;56.964;24.128;2023-04-21T04:00:04;102227.97;;;6.49;100.00
7407;BME280;3745;56.964;24.128;2023-04-21T04:02:30;102247.31;;;6.66;100.00
7407;BME280;3745;56.964;24.128;2023-04-21T04:04:55;102252.50;;;6.69;100.00
7407;BME280;3745;56.964;24.128;2023-04-21T04:07:21;102240.53;;;6.65;100.00
7407;BME280;3745;56.964;24.128;2023-04-21T04:09:46;102242.91;;;6.78;100.00
7407;BME280;3745;56.964;24.128;2023-04-21T04:12:12;102246.19;;;6.77;100.00
7407;BME280;3745;56.964;24.128;2023-04-21T04:14:38;102250.00;;;6.85;100.00
7407;BME280;3745;56.964;24.128;2023-04-21T04:17:03;102248.25;;;6.84;100.00
7407;BME280;3745;56.964;24.128;2023-04-21T04:19:30;102251.72;;;6.86;100.00
7407;BME280;3745;56.964;24.128;2023-04-21T04:21:59;102237.25;;;6.82;100.00
7407;BME280;3745;56.964;24.128;2023-04-21T04:24:25;102227.97;;;6.81;100.00
7407;BME280;3745;56.964;24.128;2023-04-21T04:26:51;102188.84;;;6.70;100.00
7407;BME280;3745;56.964;24.128;2023-04-21T04:29:22;102249.66;;;7.12;100.00
7407;BME280;3745;56.964;24.128;2023-04-21T04:31:49;102248.56;;;7.23;100.00
7407;BME280;3745;56.964;24.128;2023-04-21T04:34:14;102198.84;;;7.02;100.00
7407;BME280;3745;56.964;24.128;2023-04-21T04:36:40;102234.69;;;7.31;100.00
7407;BME280;3745;56.964;24.128;2023-04-21T04:39:07;102201.09;;;7.30;100.00
7407;BME280;3745;56.964;24.128;2023-04-21T04:41:35;102230.06;;;7.56;100.00
7407;BME280;3745;56.964;24.128;2023-04-21T04:44:01;102224.59;;;7.64;100.00
7407;BME280;3745;56.964;24.128;2023-04-21T04:46:32;102184.28;;;7.47;100.00
7407;BME280;3745;56.964;24.128;2023-04-21T04:48:59;102214.38;;;7.79;100.00
7407;BME280;3745;56.964;24.128;2023-04-21T04:51:28;102218.78;;;7.83;100.00
7407;BME280;3745;56.964;24.128;2023-04-21T04:53:54;102217.72;;;7.78;100.00
7407;BME280;3745;56.964;24.128;2023-04-21T04:56:19;102214.94;;;7.91;100.00
7407;BME280;3745;56.964;24.128;2023-04-21T04:58:45;102205.00;;;7.94;100.00
7407;BME280;3745;56.964;24.128;2023-04-21T05:01:17;102196.66;;;7.95;100.00
7407;BME280;3745;56.964;24.128;2023-04-21T05:03:43;102150.03;;;7.68;100.00
7407;BME280;3745;56.964;24.128;2023-04-21T05:06:09;102210.63;;;8.06;100.00
7407;BME280;3745;56.964;24.128;2023-04-21T05:08:35;102210.75;;;8.09;100.00
7407;BME280;3745;56.964;24.128;2023-04-21T05:11:01;102184.06;;;7.95;100.00
7407;BME280;3745;56.964;24.128;2023-04-21T05:13:27;102182.56;;;7.99;100.00
7407;BME280;3745;56.964;24.128;2023-04-21T05:15:57;102185.97;;;8.18;100.00
7407;BME280;3745;56.964;24.128;2023-04-21T05:18:23;102193.19;;;8.29;100.00
7407;BME280;3745;56.964;24.128;2023-04-21T05:20:48;102211.16;;;8.54;100.00
7407;BME280;3745;56.964;24.128;2023-04-21T05:23:14;102204.50;;;8.56;100.00
7407;BME280;3745;56.964;24.128;2023-04-21T05:25:39;102206.09;;;8.54;100.00
7407;BME280;3745;56.964;24.128;2023-04-21T05:28:05;102183.41;;;8.54;100.00
7407;BME280;3745;56.964;24.128;2023-04-21T05:30:31;102202.25;;;8.81;100.00
7407;BME280;3745;56.964;24.128;2023-04-21T05:32:56;102197.59;;;8.90;100.00
7407;BME280;3745;56.964;24.128;2023-04-21T05:35:22;102131.41;;;8.57;100.00
7407;BME280;3745;56.964;24.128;2023-04-21T05:37:47;102192.81;;;8.96;100.00
7407;BME280;3745;56.964;24.128;2023-04-21T05:40:13;102187.38;;;8.87;100.00
7407;BME280;3745;56.964;24.128;2023-04-21T05:42:38;102187.88;;;8.99;100.00
7407;BME280;3745;56.964;24.128;2023-04-21T05:45:04;102153.44;;;9.01;100.00
7407;BME280;3745;56.964;24.128;2023-04-21T05:47:30;102155.25;;;9.04;100.00
7407;BME280;3745;56.964;24.128;2023-04-21T05:49:56;102175.34;;;9.21;100.00
7407;BME280;3745;56.964;24.128;2023-04-21T05:52:21;102172.41;;;9.32;100.00
7407;BME280;3745;56.964;24.128;2023-04-21T05:54:47;102132.94;;;9.14;100.00
7407;BME280;3745;56.964;24.128;2023-04-21T05:57:13;102163.69;;;9.46;100.00
7407;BME280;3745;56.964;24.128;2023-04-21T05:59:39;102169.66;;;9.48;100.00
7407;BME280;3745;56.964;24.128;2023-04-21T06:02:04;102161.88;;;9.64;100.00
7407;BME280;3745;56.964;24.128;2023-04-21T06:04:30;102145.81;;;9.62;100.00
7407;BME280;3745;56.964;24.128;2023-04-21T06:06:55;102148.56;;;9.68;100.00
7407;BME280;3745;56.964;24.128;2023-04-21T06:09:21;102162.47;;;9.79;100.00
7407;BME280;3745;56.964;24.128;2023-04-21T06:11:47;102151.47;;;9.99;100.00
7407;BME280;3745;56.964;24.128;2023-04-21T06:14:12;102075.94;;;9.64;100.00
7407;BME280;3745;56.964;24.128;2023-04-21T06:16:37;102152.03;;;9.92;100.00
7407;BME280;3745;56.964;24.128;2023-04-21T06:19:03;102099.13;;;9.54;100.00
7407;BME280;3745;56.964;24.128;2023-04-21T06:21:29;102167.09;;;9.89;100.00
7407;BME280;3745;56.964;24.128;2023-04-21T06:23:55;102161.81;;;10.05;100.00
7407;BME280;3745;56.964;24.128;2023-04-21T06:26:20;102141.59;;;10.05;100.00
7407;BME280;3745;56.964;24.128;2023-04-21T06:28:46;102134.00;;;10.05;100.00
7407;BME280;3745;56.964;24.128;2023-04-21T06:31:11;102159.06;;;10.21;100.00
7407;BME280;3745;56.964;24.128;2023-04-21T06:33:40;102163.44;;;10.25;100.00
7407;BME280;3745;56.964;24.128;2023-04-21T06:36:06;102160.88;;;10.48;100.00
7407;BME280;3745;56.964;24.128;2023-04-21T06:38:31;102161.69;;;10.70;100.00
7407;BME280;3745;56.964;24.128;2023-04-21T06:40:57;102145.31;;;10.61;100.00
7407;BME280;3745;56.964;24.128;2023-04-21T06:43:23;102160.63;;;10.89;100.00
7407;BME280;3745;56.964;24.128;2023-04-21T06:45:48;102131.34;;;10.97;100.00
7407;BME280;3745;56.964;24.128;2023-04-21T06:48:14;102109.56;;;11.02;100.00
7407;BME280;3745;56.964;24.128;2023-04-21T06:50:40;102165.94;;;11.47;100.00
7407;BME280;3745;56.964;24.128;2023-04-21T06:53:09;102113.81;;;11.28;100.00
7407;BME280;3745;56.964;24.128;2023-04-21T06:55:35;102141.03;;;11.35;100.00
7407;BME280;3745;56.964;24.128;2023-04-21T06:58:01;102139.56;;;11.42;100.00
7407;BME280;3745;56.964;24.128;2023-04-21T07:00:26;102156.16;;;11.32;100.00
7407;BME280;3745;56.964;24.128;2023-04-21T07:02:52;102164.16;;;11.44;100.00
7407;BME280;3745;56.964;24.128;2023-04-21T07:05:18;102163.63;;;11.55;100.00
7407;BME280;3745;56.964;24.128;2023-04-21T07:07:43;102126.59;;;11.33;100.00
7407;BME280;3745;56.964;24.128;2023-04-21T07:10:09;102157.50;;;11.48;100.00
7407;BME280;3745;56.964;24.128;2023-04-21T07:12:35;102158.19;;;11.42;100.00
7407;BME280;3745;56.964;24.128;2023-04-21T07:15:00;102099.50;;;11.30;100.00
7407;BME280;3745;56.964;24.128;2023-04-21T07:17:26;102118.59;;;11.48;100.00
7407;BME280;3745;56.964;24.128;2023-04-21T07:19:52;102143.72;;;11.67;100.00
7407;BME280;3745;56.964;24.128;2023-04-21T07:22:17;102133.56;;;11.67;100.00
7407;BME280;3745;56.964;24.128;2023-04-21T07:24:43;102137.72;;;11.90;100.00
7407;BME280;3745;56.964;24.128;2023-04-21T07:27:08;102138.06;;;12.02;100.00
7407;BME280;3745;56.964;24.128;2023-04-21T07:29:34;102127.81;;;11.99;100.00
7407;BME280;3745;56.964;24.128;2023-04-21T07:31:59;102138.06;;;12.02;100.00
7407;BME280;3745;56.964;24.128;2023-04-21T07:34:25;102126.28;;;12.04;100.00
7407;BME280;3745;56.964;24.128;2023-04-21T07:36:51;102103.25;;;11.98;100.00
7407;BME280;3745;56.964;24.128;2023-04-21T07:39:16;102095.56;;;11.95;100.00
7407;BME280;3745;56.964;24.128;2023-04-21T07:41:42;102122.84;;;12.02;100.00
7407;BME280;3745;56.964;24.128;2023-04-21T07:44:07;102114.56;;;12.09;100.00
7407;BME280;3745;56.964;24.128;2023-04-21T07:46:33;102111.66;;;12.25;100.00
7407;BME280;3745;56.964;24.128;2023-04-21T07:48:59;102058.22;;;11.91;100.00
7407;BME280;3745;56.964;24.128;2023-04-21T07:51:26;102088.84;;;12.27;100.00
7407;BME280;3745;56.964;24.128;2023-04-21T07:53:54;102061.34;;;12.12;100.00
7407;BME280;3745;56.964;24.128;2023-04-21T07:56:20;102126.56;;;12.44;100.00
7407;BME280;3745;56.964;24.128;2023-04-21T07:58:46;102117.06;;;12.37;100.00
7407;BME280;3745;56.964;24.128;2023-04-21T08:01:12;102129.88;;;12.42;100.00
7407;BME280;3745;56.964;24.128;2023-04-21T08:03:37;102118.22;;;12.48;100.00
7407;BME280;3745;56.964;24.128;2023-04-21T08:06:03;102119.28;;;12.57;100.00
7407;BME280;3745;56.964;24.128;2023-04-21T08:08:29;102124.66;;;12.36;100.00
7407;BME280;3745;56.964;24.128;2023-04-21T08:10:55;102125.22;;;11.98;100.00
7407;BME280;3745;56.964;24.128;2023-04-21T08:13:20;102110.88;;;11.98;100.00
7407;BME280;3745;56.964;24.128;2023-04-21T08:15:55;102118.31;;;11.92;100.00
7407;BME280;3745;56.964;24.128;2023-04-21T08:18:24;102069.19;;;11.62;100.00
7407;BME280;3745;56.964;24.128;2023-04-21T08:20:50;102082.97;;;11.70;100.00
7407;BME280;3745;56.964;24.128;2023-04-21T08:23:16;102120.41;;;11.77;100.00
7407;BME280;3745;56.964;24.128;2023-04-21T08:25:45;102008.88;;;11.23;100.00
7407;BME280;3745;56.964;24.128;2023-04-21T08:28:11;101931.31;;;10.72;100.00
7407;BME280;3745;56.964;24.128;2023-04-21T08:30:38;102113.69;;;11.79;100.00
7407;BME280;3745;56.964;24.128;2023-04-21T08:33:04;102107.34;;;11.93;100.00
7407;BME280;3745;56.964;24.128;2023-04-21T08:35:30;102006.34;;;11.52;100.00
7407;BME280;3745;56.964;24.128;2023-04-21T08:37:56;102062.44;;;11.90;100.00
7407;BME280;3745;56.964;24.128;2023-04-21T08:40:26;102097.13;;;12.21;100.00
7407;BME280;3745;56.964;24.128;2023-04-21T08:42:56;102093.41;;;12.38;100.00
7407;BME280;3745;56.964;24.128;2023-04-21T08:45:22;102061.25;;;12.39;100.00
7407;BME280;3745;56.964;24.128;2023-04-21T08:47:48;102063.25;;;12.50;100.00
7407;BME280;3745;56.964;24.128;2023-04-21T08:50:13;101878.28;;;11.34;100.00
7407;BME280;3745;56.964;24.128;2023-04-21T08:52:39;102025.66;;;12.06;100.00
7407;BME280;3745;56.964;24.128;2023-04-21T08:55:05;102048.75;;;12.15;100.00
7407;BME280;3745;56.964;24.128;2023-04-21T08:57:32;102084.97;;;12.39;100.00
7407;BME280;3745;56.964;24.128;2023-04-21T08:59:57;102089.97;;;12.36;100.00
7407;BME280;3745;56.964;24.128;2023-04-21T09:02:23;102064.03;;;12.17;100.00
7407;BME280;3745;56.964;24.128;2023-04-21T09:04:49;102091.66;;;12.37;100.00
7407;BME280;3745;56.964;24.128;2023-04-21T09:07:35;102067.44;;;12.17;100.00
7407;BME280;3745;56.964;24.128;2023-04-21T09:10:04;102060.16;;;12.29;100.00
7407;BME280;3745;56.964;24.128;2023-04-21T09:12:30;102063.91;;;12.43;100.00
7407;BME280;3745;56.964;24.128;2023-04-21T09:14:56;102016.34;;;12.05;100.00
7407;BME280;3745;56.964;24.128;2023-04-21T09:17:30;102076.75;;;12.49;100.00
7407;BME280;3745;56.964;24.128;2023-04-21T09:20:16;102078.63;;;12.57;100.00
7407;BME280;3745;56.964;24.128;2023-04-21T09:22:43;102074.69;;;12.68;100.00
7407;BME280;3745;56.964;24.128;2023-04-21T09:25:08;102074.47;;;12.93;100.00
7407;BME280;3745;56.964;24.128;2023-04-21T09:27:35;102078.16;;;13.04;100.00
7407;BME280;3745;56.964;24.128;2023-04-21T09:30:03;102073.38;;;13.16;100.00
7407;BME280;3745;56.964;24.128;2023-04-21T09:32:38;101974.88;;;12.37;100.00
7407;BME280;3745;56.964;24.128;2023-04-21T09:35:13;102065.28;;;12.98;100.00
7407;BME280;3745;56.964;24.128;2023-04-21T09:37:42;102067.97;;;13.04;100.00
7407;BME280;3745;56.964;24.128;2023-04-21T09:40:18;102069.47;;;12.96;100.00
7407;BME280;3745;56.964;24.128;2023-04-21T09:42:55;101913.13;;;12.04;100.00
7407;BME280;3745;56.964;24.128;2023-04-21T09:45:26;102059.63;;;13.08;100.00
7407;BME280;3745;56.964;24.128;2023-04-21T09:47:55;102056.69;;;13.27;100.00
7407;BME280;3745;56.964;24.128;2023-04-21T09:50:22;102053.97;;;13.58;100.00
7407;BME280;3745;56.964;24.128;2023-04-21T09:52:52;102019.00;;;13.48;100.00
7407;BME280;3745;56.964;24.128;2023-04-21T09:55:32;102046.28;;;13.96;100.00
7407;BME280;3745;56.964;24.128;2023-04-21T09:57:59;102051.25;;;13.90;100.00
7407;BME280;3745;56.964;24.128;2023-04-21T10:00:27;102054.72;;;13.53;100.00
7407;BME280;3745;56.964;24.128;2023-04-21T10:02:54;102047.22;;;13.61;100.00
7407;BME280;3745;56.964;24.128;2023-04-21T10:05:20;102000.81;;;13.30;100.00
7407;BME280;3745;56.964;24.128;2023-04-21T10:07:47;102059.06;;;13.58;100.00
7407;BME280;3745;56.964;24.128;2023-04-21T10:10:31;102040.63;;;13.69;100.00
7407;BME280;3745;56.964;24.128;2023-04-21T10:12:58;102052.06;;;13.48;100.00
7407;BME280;3745;56.964;24.128;2023-04-21T10:15:38;102031.50;;;13.39;100.00
7407;BME280;3745;56.964;24.128;2023-04-21T10:18:18;101995.09;;;13.03;100.00
7407;BME280;3745;56.964;24.128;2023-04-21T10:23:26;102036.19;;;13.58;100.00
7407;BME280;3745;56.964;24.128;2023-04-21T10:25:55;102016.81;;;13.67;100.00
7407;BME280;3745;56.964;24.128;2023-04-21T10:28:40;102005.06;;;13.72;100.00
7407;BME280;3745;56.964;24.128;2023-04-21T10:31:22;102023.38;;;13.97;100.00
7407;BME280;3745;56.964;24.128;2023-04-21T10:36:30;101972.75;;;13.68;100.00
7407;BME280;3745;56.964;24.128;2023-04-21T10:39:00;101950.75;;;13.70;100.00
7407;BME280;3745;56.964;24.128;2023-04-21T10:41:29;101985.28;;;14.02;100.00
7407;BME280;3745;56.964;24.128;2023-04-21T10:43:59;101941.16;;;14.03;100.00
7407;BME280;3745;56.964;24.128;2023-04-21T10:46:33;101996.91;;;14.33;100.00
7407;BME280;3745;56.964;24.128;2023-04-21T10:54:24;101995.75;;;14.65;100.00
7407;BME280;3745;56.964;24.128;2023-04-21T10:56:57;101945.00;;;14.26;100.00
7407;BME280;3745;56.964;24.128;2023-04-21T10:59:25;101976.38;;;14.25;100.00
7407;BME280;3745;56.964;24.128;2023-04-21T11:01:51;101977.22;;;14.24;100.00
7407;BME280;3745;56.964;24.128;2023-04-21T11:04:18;101944.84;;;14.17;100.00
7407;BME280;3745;56.964;24.128;2023-04-21T11:07:07;101983.19;;;14.76;100.00
7407;BME280;3745;56.964;24.128;2023-04-21T11:09:34;101917.84;;;14.28;100.00
7407;BME280;3745;56.964;24.128;2023-04-21T11:12:01;101897.59;;;14.34;100.00
7407;BME280;3745;56.964;24.128;2023-04-21T11:14:28;101971.56;;;14.96;100.00
7407;BME280;3745;56.964;24.128;2023-04-21T11:16:54;101961.03;;;14.72;100.00
7407;BME280;3745;56.964;24.128;2023-04-21T11:19:20;101779.66;;;13.83;100.00
7407;BME280;3745;56.964;24.128;2023-04-21T11:21:50;101922.94;;;14.81;100.00
7407;BME280;3745;56.964;24.128;2023-04-21T11:24:18;101954.06;;;15.18;100.00
7407;BME280;3745;56.964;24.128;2023-04-21T11:26:44;101957.41;;;15.16;100.00
7407;BME280;3745;56.964;24.128;2023-04-21T11:29:10;101952.00;;;14.93;100.00
7407;BME280;3745;56.964;24.128;2023-04-21T11:31:38;101925.47;;;14.81;100.00
7407;BME280;3745;56.964;24.128;2023-04-21T11:34:05;101857.13;;;14.52;100.00
7407;BME280;3745;56.964;24.128;2023-04-21T11:36:42;101943.03;;;15.21;100.00
7407;BME280;3745;56.964;24.128;2023-04-21T11:39:13;101929.56;;;15.31;100.00
7407;BME280;3745;56.964;24.128;2023-04-21T11:41:43;101930.50;;;15.38;100.00
7407;BME280;3745;56.964;24.128;2023-04-21T11:44:11;101926.50;;;15.56;100.00
7407;BME280;3745;56.964;24.128;2023-04-21T11:46:43;101919.00;;;15.73;100.00
7407;BME280;3745;56.964;24.128;2023-04-21T11:49:12;101910.41;;;15.65;100.00
7407;BME280;3745;56.964;24.128;2023-04-21T11:51:40;101893.22;;;15.49;100.00
7407;BME280;3745;56.964;24.128;2023-04-21T11:54:07;101885.44;;;15.41;100.00
7407;BME280;3745;56.964;24.128;2023-04-21T11:56:38;101838.63;;;15.36;100.00
7407;BME280;3745;56.964;24.128;2023-04-21T11:59:08;101906.47;;;15.96;100.00
7407;BME280;3745;56.964;24.128;2023-04-21T12:01:54;101849.88;;;15.50;100.00
7407;BME280;3745;56.964;24.128;2023-04-21T12:04:24;101901.03;;;15.62;100.00
7407;BME280;3745;56.964;24.128;2023-04-21T12:06:58;101902.78;;;15.69;100.00
7407;BME280;3745;56.964;24.128;2023-04-21T12:09:24;101858.91;;;15.23;100.00
7407;BME280;3745;56.964;24.128;2023-04-21T12:11:52;101898.25;;;15.46;100.00
7407;BME280;3745;56.964;24.128;2023-04-21T12:14:20;101894.31;;;15.00;100.00
7407;BME280;3745;56.964;24.128;2023-04-21T12:16:52;101860.81;;;14.73;100.00
7407;BME280;3745;56.964;24.128;2023-04-21T12:21:54;101895.59;;;14.69;100.00
7407;BME280;3745;56.964;24.128;2023-04-21T12:24:20;101819.13;;;14.12;100.00
7407;BME280;3745;56.964;24.128;2023-04-21T12:26:46;101846.84;;;14.46;100.00
7407;BME280;3745;56.964;24.128;2023-04-21T12:29:12;101879.47;;;14.72;100.00
7407;BME280;3745;56.964;24.128;2023-04-21T12:31:37;101881.53;;;14.97;100.00
7407;BME280;3745;56.964;24.128;2023-04-21T12:34:03;101863.66;;;14.97;100.00
7407;BME280;3745;56.964;24.128;2023-04-21T12:36:29;101878.06;;;14.92;100.00
7407;BME280;3745;56.964;24.128;2023-04-21T12:38:55;101879.59;;;14.81;100.00
7407;BME280;3745;56.964;24.128;2023-04-21T12:41:20;101872.78;;;14.80;100.00
7407;BME280;3745;56.964;24.128;2023-04-21T12:43:46;101872.22;;;15.00;100.00
7407;BME280;3745;56.964;24.128;2023-04-21T12:46:11;101865.81;;;14.67;100.00
7407;BME280;3745;56.964;24.128;2023-04-21T12:48:37;101826.53;;;14.52;100.00
7407;BME280;3745;56.964;24.128;2023-04-21T12:51:03;101872.31;;;14.46;100.00
7407;BME280;3745;56.964;24.128;2023-04-21T12:53:28;101865.63;;;14.51;100.00
7407;BME280;3745;56.964;24.128;2023-04-21T12:55:54;101793.56;;;14.06;100.00
7407;BME280;3745;56.964;24.128;2023-04-21T12:58:19;101863.94;;;14.53;100.00
7407;BME280;3745;56.964;24.128;2023-04-21T13:00:45;101830.94;;;14.07;100.00
7407;BME280;3745;56.964;24.128;2023-04-21T13:03:11;101868.09;;;13.96;100.00
7407;BME280;3745;56.964;24.128;2023-04-21T13:05:36;101862.09;;;13.94;100.00
7407;BME280;3745;56.964;24.128;2023-04-21T13:08:02;101856.28;;;13.99;100.00